sensor_id;sensor_type;location;lat;lon;timestamp;pressure;altitude;pressure_sealevel;temperature;humidity
6853;BME280;3465;42.144;24.722;2023-02-28T00:00:09;145607.63;;;10.76;100.00
6853;BME280;3465;42.144;24.722;2023-02-28T00:02:39;145606.41;;;10.76;100.00
6853;BME280;3465;42.144;24.722;2023-02-28T00:05:06;145592.63;;;10.70;100.00
6853;BME280;3465;42.144;24.722;2023-02-28T00:07:32;145583.84;;;10.67;100.00
6853;BME280;3465;42.144;24.722;2023-02-28T00:09:58;145573.84;;;10.63;100.00
6853;BME280;3465;42.144;24.722;2023-02-28T00:12:23;145577.59;;;10.64;100.00
6853;BME280;3465;42.144;24.722;2023-02-28T00:14:49;145560.06;;;10.57;100.00
6853;BME280;3465;42.144;24.722;2023-02-28T00:17:15;145556.31;;;10.56;100.00
6853;BME280;3465;42.144;24.722;2023-02-28T00:19:43;145467.41;;;10.20;100.00
6853;BME280;3465;42.144;24.722;2023-02-28T00:22:08;145558.78;;;10.57;100.00
6853;BME280;3465;42.144;24.722;2023-02-28T00:24:34;145517.50;;;10.40;100.00
6853;BME280;3465;42.144;24.722;2023-02-28T00:26:59;145548.78;;;10.53;100.00
6853;BME280;3465;42.144;24.722;2023-02-28T00:29:25;145555.03;;;10.55;100.00
6853;BME280;3465;42.144;24.722;2023-02-28T00:31:50;145560.06;;;10.57;100.00
6853;BME280;3465;42.144;24.722;2023-02-28T00:34:15;145562.53;;;10.58;100.00
6853;BME280;3465;42.144;24.722;2023-02-28T00:36:41;145567.56;;;10.60;100.00
6853;BME280;3465;42.144;24.722;2023-02-28T00:39:10;145514.97;;;10.39;100.00
6853;BME280;3465;42.144;24.722;2023-02-28T00:41:36;145543.78;;;10.51;100.00
6853;BME280;3465;42.144;24.722;2023-02-28T00:44:01;145531.25;;;10.46;100.00
6853;BME280;3465;42.144;24.722;2023-02-28T00:46:26;145476.16;;;10.24;100.00
6853;BME280;3465;42.144;24.722;2023-02-28T00:48:52;145531.25;;;10.46;100.00
6853;BME280;3465;42.144;24.722;2023-02-28T00:51:17;145482.41;;;10.26;100.00
6853;BME280;3465;42.144;24.722;2023-02-28T00:53:43;145510.00;;;10.37;100.00
6853;BME280;3465;42.144;24.722;2023-02-28T00:56:08;145489.97;;;10.29;100.00
6853;BME280;3465;42.144;24.722;2023-02-28T00:58:33;145501.22;;;10.34;100.00
6853;BME280;3465;42.144;24.722;2023-02-28T01:00:59;145503.69;;;10.35;100.00
6853;BME280;3465;42.144;24.722;2023-02-28T01:03:24;145498.69;;;10.33;100.00
6853;BME280;3465;42.144;24.722;2023-02-28T01:05:50;145481.19;;;10.26;100.00
6853;BME280;3465;42.144;24.722;2023-02-28T01:08:15;145494.94;;;10.31;100.00
6853;BME280;3465;42.144;24.722;2023-02-28T01:10:41;145493.72;;;10.31;100.00
6853;BME280;3465;42.144;24.722;2023-02-28T01:13:07;145501.22;;;10.34;100.00
6853;BME280;3465;42.144;24.722;2023-02-28T01:15:33;145488.69;;;10.29;100.00
6853;BME280;3465;42.144;24.722;2023-02-28T01:17:58;145473.69;;;10.23;100.00
6853;BME280;3465;42.144;24.722;2023-02-28T01:20:24;145483.66;;;10.27;100.00
6853;BME280;3465;42.144;24.722;2023-02-28T01:22:49;145484.94;;;10.27;100.00
6853;BME280;3465;42.144;24.722;2023-02-28T01:25:15;145476.16;;;10.24;100.00
6853;BME280;3465;42.144;24.722;2023-02-28T01:27:40;145469.94;;;10.21;100.00
6853;BME280;3465;42.144;24.722;2023-02-28T01:30:09;145471.16;;;10.22;100.00
6853;BME280;3465;42.144;24.722;2023-02-28T01:32:35;145466.19;;;10.20;100.00
6853;BME280;3465;42.144;24.722;2023-02-28T01:35:01;145476.16;;;10.24;100.00
6853;BME280;3465;42.144;24.722;2023-02-28T01:37:26;145472.41;;;10.22;100.00
6853;BME280;3465;42.144;24.722;2023-02-28T01:39:52;145479.91;;;10.25;100.00
6853;BME280;3465;42.144;24.722;2023-02-28T01:42:17;145473.69;;;10.23;100.00
6853;BME280;3465;42.144;24.722;2023-02-28T01:47:48;145458.63;;;10.17;100.00
6853;BME280;3465;42.144;24.722;2023-02-28T01:50:21;145469.94;;;10.21;100.00
6853;BME280;3465;42.144;24.722;2023-02-28T01:52:48;145457.41;;;10.16;100.00
6853;BME280;3465;42.144;24.722;2023-02-28T01:55:16;145486.22;;;10.28;100.00
6853;BME280;3465;42.144;24.722;2023-02-28T01:57:48;145498.69;;;10.33;100.00
6853;BME280;3465;42.144;24.722;2023-02-28T02:00:18;145494.94;;;10.31;100.00
6853;BME280;3465;42.144;24.722;2023-02-28T02:02:47;145492.44;;;10.30;100.00
6853;BME280;3465;42.144;24.722;2023-02-28T02:05:18;145504.97;;;10.35;100.00
6853;BME280;3465;42.144;24.722;2023-02-28T02:07:46;145513.75;;;10.39;100.00
6853;BME280;3465;42.144;24.722;2023-02-28T02:10:20;145523.75;;;10.43;100.00
6853;BME280;3465;42.144;24.722;2023-02-28T02:15:30;145497.47;;;10.32;100.00
6853;BME280;3465;42.144;24.722;2023-02-28T02:18:02;145521.25;;;10.42;100.00
6853;BME280;3465;42.144;24.722;2023-02-28T02:20:46;145497.47;;;10.32;100.00
6853;BME280;3465;42.144;24.722;2023-02-28T02:34:50;145396.00;;;9.91;100.00
6853;BME280;3465;42.144;24.722;2023-02-28T02:40:14;145339.69;;;9.69;100.00
6853;BME280;3465;42.144;24.722;2023-02-28T02:45:26;145313.44;;;9.58;100.00
6853;BME280;3465;42.144;24.722;2023-02-28T02:47:55;145318.41;;;9.60;100.00
6853;BME280;3465;42.144;24.722;2023-02-28T02:50:31;145318.41;;;9.60;100.00
6853;BME280;3465;42.144;24.722;2023-02-28T02:53:00;145323.41;;;9.62;100.00
6853;BME280;3465;42.144;24.722;2023-02-28T02:55:27;145328.44;;;9.64;100.00
6853;BME280;3465;42.144;24.722;2023-02-28T02:57:59;145323.41;;;9.62;100.00
6853;BME280;3465;42.144;24.722;2023-02-28T03:00:31;145304.66;;;9.55;100.00
6853;BME280;3465;42.144;24.722;2023-02-28T03:02:58;145339.69;;;9.69;100.00
6853;BME280;3465;42.144;24.722;2023-02-28T03:05:32;145345.97;;;9.71;100.00
6853;BME280;3465;42.144;24.722;2023-02-28T03:07:59;145345.97;;;9.71;100.00
6853;BME280;3465;42.144;24.722;2023-02-28T03:10:32;145337.19;;;9.68;100.00
6853;BME280;3465;42.144;24.722;2023-02-28T03:13:14;145323.41;;;9.62;100.00
6853;BME280;3465;42.144;24.722;2023-02-28T03:15:54;145327.16;;;9.64;100.00
6853;BME280;3465;42.144;24.722;2023-02-28T03:18:36;145343.44;;;9.70;100.00
6853;BME280;3465;42.144;24.722;2023-02-28T03:21:18;145344.72;;;9.71;100.00
6853;BME280;3465;42.144;24.722;2023-02-28T03:26:21;145337.19;;;9.68;100.00
6853;BME280;3465;42.144;24.722;2023-02-28T03:31:19;145280.91;;;9.45;100.00
6853;BME280;3465;42.144;24.722;2023-02-28T03:33:55;145273.41;;;9.42;100.00
6853;BME280;3465;42.144;24.722;2023-02-28T03:36:30;145280.91;;;9.45;100.00
6853;BME280;3465;42.144;24.722;2023-02-28T03:39:08;145293.41;;;9.50;100.00
6853;BME280;3465;42.144;24.722;2023-02-28T03:41:52;145253.38;;;9.34;100.00
6853;BME280;3465;42.144;24.722;2023-02-28T03:44:26;145269.66;;;9.41;100.00
6853;BME280;3465;42.144;24.722;2023-02-28T03:46:58;145278.38;;;9.44;100.00
6853;BME280;3465;42.144;24.722;2023-02-28T03:49:39;145265.91;;;9.39;100.00
6853;BME280;3465;42.144;24.722;2023-02-28T03:52:06;145260.88;;;9.37;100.00
6853;BME280;3465;42.144;24.722;2023-02-28T03:54:38;145245.88;;;9.31;100.00
6853;BME280;3465;42.144;24.722;2023-02-28T03:59:39;145237.13;;;9.28;100.00
6853;BME280;3465;42.144;24.722;2023-02-28T04:02:07;145237.13;;;9.28;100.00
6853;BME280;3465;42.144;24.722;2023-02-28T04:04:33;145249.63;;;9.33;100.00
6853;BME280;3465;42.144;24.722;2023-02-28T04:07:08;145237.13;;;9.28;100.00
6853;BME280;3465;42.144;24.722;2023-02-28T04:09:36;145243.34;;;9.30;100.00
6853;BME280;3465;42.144;24.722;2023-02-28T04:12:01;145224.59;;;9.23;100.00
6853;BME280;3465;42.144;24.722;2023-02-28T04:14:27;145247.09;;;9.32;100.00
6853;BME280;3465;42.144;24.722;2023-02-28T04:16:52;145255.88;;;9.35;100.00
6853;BME280;3465;42.144;24.722;2023-02-28T04:19:18;145229.63;;;9.25;100.00
6853;BME280;3465;42.144;24.722;2023-02-28T04:21:49;145222.06;;;9.22;100.00
6853;BME280;3465;42.144;24.722;2023-02-28T04:24:20;145203.31;;;9.14;100.00
6853;BME280;3465;42.144;24.722;2023-02-28T04:26:48;145179.56;;;9.05;100.00
6853;BME280;3465;42.144;24.722;2023-02-28T04:29:20;145185.84;;;9.07;100.00
6853;BME280;3465;42.144;24.722;2023-02-28T04:31:45;145193.34;;;9.10;100.00
6853;BME280;3465;42.144;24.722;2023-02-28T04:34:11;145192.06;;;9.10;100.00
6853;BME280;3465;42.144;24.722;2023-02-28T04:36:36;145167.06;;;9.00;100.00
6853;BME280;3465;42.144;24.722;2023-02-28T04:39:02;145165.84;;;8.99;100.00
6853;BME280;3465;42.144;24.722;2023-02-28T04:41:29;145165.84;;;8.99;100.00
6853;BME280;3465;42.144;24.722;2023-02-28T04:43:54;145188.34;;;9.08;100.00
6853;BME280;3465;42.144;24.722;2023-02-28T04:46:21;145184.59;;;9.07;100.00
6853;BME280;3465;42.144;24.722;2023-02-28T04:48:47;145203.31;;;9.14;100.00
6853;BME280;3465;42.144;24.722;2023-02-28T04:51:14;145213.34;;;9.18;100.00
6853;BME280;3465;42.144;24.722;2023-02-28T04:53:41;145225.88;;;9.23;100.00
6853;BME280;3465;42.144;24.722;2023-02-28T04:56:09;145213.34;;;9.18;100.00
6853;BME280;3465;42.144;24.722;2023-02-28T04:58:36;145205.84;;;9.15;100.00
6853;BME280;3465;42.144;24.722;2023-02-28T05:01:04;145208.34;;;9.16;100.00
6853;BME280;3465;42.144;24.722;2023-02-28T05:03:30;145218.31;;;9.20;100.00
6853;BME280;3465;42.144;24.722;2023-02-28T05:05:55;145173.34;;;9.02;100.00
6853;BME280;3465;42.144;24.722;2023-02-28T05:08:20;145209.59;;;9.17;100.00
6853;BME280;3465;42.144;24.722;2023-02-28T05:10:46;145188.34;;;9.08;100.00
6853;BME280;3465;42.144;24.722;2023-02-28T05:13:12;145209.59;;;9.17;100.00
6853;BME280;3465;42.144;24.722;2023-02-28T05:15:37;145192.06;;;9.10;100.00
6853;BME280;3465;42.144;24.722;2023-02-28T05:18:03;145208.34;;;9.16;100.00
6853;BME280;3465;42.144;24.722;2023-02-28T05:20:28;145199.56;;;9.13;100.00
6853;BME280;3465;42.144;24.722;2023-02-28T05:22:53;145203.31;;;9.14;100.00
6853;BME280;3465;42.144;24.722;2023-02-28T05:25:21;145139.56;;;8.89;100.00
6853;BME280;3465;42.144;24.722;2023-02-28T05:27:48;145165.84;;;8.99;100.00
6853;BME280;3465;42.144;24.722;2023-02-28T05:30:14;145174.56;;;9.03;100.00
6853;BME280;3465;42.144;24.722;2023-02-28T05:32:41;145204.59;;;9.15;100.00
6853;BME280;3465;42.144;24.722;2023-02-28T05:35:09;145195.84;;;9.11;100.00
6853;BME280;3465;42.144;24.722;2023-02-28T05:37:35;145189.59;;;9.09;100.00
6853;BME280;3465;42.144;24.722;2023-02-28T05:40:03;145203.31;;;9.14;100.00
6853;BME280;3465;42.144;24.722;2023-02-28T05:42:35;145210.81;;;9.17;100.00
6853;BME280;3465;42.144;24.722;2023-02-28T05:45:01;145188.34;;;9.08;100.00
6853;BME280;3465;42.144;24.722;2023-02-28T05:47:26;145200.84;;;9.13;100.00
6853;BME280;3465;42.144;24.722;2023-02-28T05:49:51;145213.34;;;9.18;100.00
6853;BME280;3465;42.144;24.722;2023-02-28T05:52:17;145208.34;;;9.16;100.00
6853;BME280;3465;42.144;24.722;2023-02-28T05:54:42;145173.34;;;9.02;100.00
6853;BME280;3465;42.144;24.722;2023-02-28T05:57:08;145199.56;;;9.13;100.00
6853;BME280;3465;42.144;24.722;2023-02-28T05:59:33;145149.59;;;8.93;100.00
6853;BME280;3465;42.144;24.722;2023-02-28T06:01:59;145225.88;;;9.23;100.00
6853;BME280;3465;42.144;24.722;2023-02-28T06:04:24;145255.88;;;9.35;100.00
6853;BME280;3465;42.144;24.722;2023-02-28T06:06:50;145260.88;;;9.37;100.00
6853;BME280;3465;42.144;24.722;2023-02-28T06:09:17;145225.88;;;9.23;100.00
6853;BME280;3465;42.144;24.722;2023-02-28T06:11:43;145185.84;;;9.07;100.00
6853;BME280;3465;42.144;24.722;2023-02-28T06:14:15;145285.91;;;9.47;100.00
6853;BME280;3465;42.144;24.722;2023-02-28T06:16:41;145294.63;;;9.51;100.00
6853;BME280;3465;42.144;24.722;2023-02-28T06:19:06;145265.91;;;9.39;100.00
6853;BME280;3465;42.144;24.722;2023-02-28T06:21:32;145274.63;;;9.43;100.00
6853;BME280;3465;42.144;24.722;2023-02-28T06:23:58;145312.16;;;9.58;100.00
6853;BME280;3465;42.144;24.722;2023-02-28T06:26:25;145295.91;;;9.51;100.00
6853;BME280;3465;42.144;24.722;2023-02-28T06:28:50;145294.63;;;9.51;100.00
6853;BME280;3465;42.144;24.722;2023-02-28T06:31:17;145302.13;;;9.54;100.00
6853;BME280;3465;42.144;24.722;2023-02-28T06:33:43;145278.38;;;9.44;100.00
6853;BME280;3465;42.144;24.722;2023-02-28T06:36:10;145305.94;;;9.55;100.00
6853;BME280;3465;42.144;24.722;2023-02-28T06:38:36;145295.91;;;9.51;100.00
6853;BME280;3465;42.144;24.722;2023-02-28T06:41:03;145287.13;;;9.48;100.00
6853;BME280;3465;42.144;24.722;2023-02-28T06:43:31;145265.91;;;9.39;100.00
6853;BME280;3465;42.144;24.722;2023-02-28T06:45:58;145253.38;;;9.34;100.00
6853;BME280;3465;42.144;24.722;2023-02-28T06:48:26;145232.09;;;9.26;100.00
6853;BME280;3465;42.144;24.722;2023-02-28T06:50:52;145230.84;;;9.25;100.00
6853;BME280;3465;42.144;24.722;2023-02-28T06:53:18;145202.06;;;9.14;100.00
6853;BME280;3465;42.144;24.722;2023-02-28T06:55:43;145230.84;;;9.25;100.00
6853;BME280;3465;42.144;24.722;2023-02-28T06:58:09;145205.84;;;9.15;100.00
6853;BME280;3465;42.144;24.722;2023-02-28T07:00:44;145268.38;;;9.40;100.00
6853;BME280;3465;42.144;24.722;2023-02-28T07:03:11;145280.91;;;9.45;100.00
6853;BME280;3465;42.144;24.722;2023-02-28T07:05:38;145285.91;;;9.47;100.00
6853;BME280;3465;42.144;24.722;2023-02-28T07:08:05;145337.19;;;9.68;100.00
6853;BME280;3465;42.144;24.722;2023-02-28T07:10:31;145358.44;;;9.76;100.00
6853;BME280;3465;42.144;24.722;2023-02-28T07:12:58;145363.47;;;9.78;100.00
6853;BME280;3465;42.144;24.722;2023-02-28T07:15:23;145384.75;;;9.87;100.00
6853;BME280;3465;42.144;24.722;2023-02-28T07:17:48;145378.47;;;9.84;100.00
6853;BME280;3465;42.144;24.722;2023-02-28T07:20:14;145422.28;;;10.02;100.00
6853;BME280;3465;42.144;24.722;2023-02-28T07:22:39;145401.03;;;9.93;100.00
6853;BME280;3465;42.144;24.722;2023-02-28T07:25:05;145354.69;;;9.75;100.00
6853;BME280;3465;42.144;24.722;2023-02-28T07:27:31;145290.88;;;9.49;100.00
6853;BME280;3465;42.144;24.722;2023-02-28T07:29:57;145329.69;;;9.65;100.00
6853;BME280;3465;42.144;24.722;2023-02-28T07:32:22;145366.00;;;9.79;100.00
6853;BME280;3465;42.144;24.722;2023-02-28T07:34:48;145397.28;;;9.92;100.00
6853;BME280;3465;42.144;24.722;2023-02-28T07:37:14;145349.72;;;9.73;100.00
6853;BME280;3465;42.144;24.722;2023-02-28T07:39:39;145366.00;;;9.79;100.00
6853;BME280;3465;42.144;24.722;2023-02-28T07:42:08;145388.50;;;9.88;100.00
6853;BME280;3465;42.144;24.722;2023-02-28T07:44:36;145363.47;;;9.78;100.00
6853;BME280;3465;42.144;24.722;2023-02-28T07:47:08;145360.97;;;9.77;100.00
6853;BME280;3465;42.144;24.722;2023-02-28T07:49:37;145329.69;;;9.65;100.00
6853;BME280;3465;42.144;24.722;2023-02-28T07:52:06;145333.47;;;9.66;100.00
6853;BME280;3465;42.144;24.722;2023-02-28T07:54:32;145302.13;;;9.54;100.00
6853;BME280;3465;42.144;24.722;2023-02-28T07:56:58;145328.44;;;9.64;100.00
6853;BME280;3465;42.144;24.722;2023-02-28T07:59:24;145369.75;;;9.81;100.00
6853;BME280;3465;42.144;24.722;2023-02-28T08:01:49;145335.94;;;9.67;100.00
6853;BME280;3465;42.144;24.722;2023-02-28T08:04:17;145360.97;;;9.77;100.00
6853;BME280;3465;42.144;24.722;2023-02-28T08:06:43;145344.72;;;9.71;100.00
6853;BME280;3465;42.144;24.722;2023-02-28T08:09:08;145338.41;;;9.68;100.00
6853;BME280;3465;42.144;24.722;2023-02-28T08:11:34;145353.47;;;9.74;100.00
6853;BME280;3465;42.144;24.722;2023-02-28T08:13:59;145367.22;;;9.80;100.00
6853;BME280;3465;42.144;24.722;2023-02-28T08:16:24;145334.66;;;9.67;100.00
6853;BME280;3465;42.144;24.722;2023-02-28T08:18:53;145312.16;;;9.58;100.00
6853;BME280;3465;42.144;24.722;2023-02-28T08:21:19;145304.66;;;9.55;100.00
6853;BME280;3465;42.144;24.722;2023-02-28T08:23:50;145373.50;;;9.82;100.00
6853;BME280;3465;42.144;24.722;2023-02-28T08:26:17;145302.13;;;9.54;100.00
6853;BME280;3465;42.144;24.722;2023-02-28T08:28:42;145324.69;;;9.63;100.00
6853;BME280;3465;42.144;24.722;2023-02-28T08:31:10;145314.66;;;9.59;100.00
6853;BME280;3465;42.144;24.722;2023-02-28T08:33:36;145348.47;;;9.72;100.00
6853;BME280;3465;42.144;24.722;2023-02-28T08:36:02;145370.97;;;9.81;100.00
6853;BME280;3465;42.144;24.722;2023-02-28T08:38:27;145379.72;;;9.85;100.00
6853;BME280;3465;42.144;24.722;2023-02-28T08:41:00;145343.44;;;9.70;100.00
6853;BME280;3465;42.144;24.722;2023-02-28T08:43:28;145314.66;;;9.59;100.00
6853;BME280;3465;42.144;24.722;2023-02-28T08:45:55;145348.47;;;9.72;100.00
6853;BME280;3465;42.144;24.722;2023-02-28T08:48:23;145320.94;;;9.61;100.00
6853;BME280;3465;42.144;24.722;2023-02-28T08:51:15;145401.03;;;9.93;100.00
6853;BME280;3465;42.144;24.722;2023-02-28T08:53:44;145428.56;;;10.04;100.00
6853;BME280;3465;42.144;24.722;2023-02-28T08:56:12;145419.78;;;10.01;100.00
6853;BME280;3465;42.144;24.722;2023-02-28T08:58:38;145438.59;;;10.08;100.00
6853;BME280;3465;42.144;24.722;2023-02-28T09:01:18;145402.25;;;9.94;100.00
6853;BME280;3465;42.144;24.722;2023-02-28T09:03:46;145451.13;;;10.13;100.00
6853;BME280;3465;42.144;24.722;2023-02-28T09:06:13;145418.53;;;10.00;100.00
6853;BME280;3465;42.144;24.722;2023-02-28T09:08:39;145369.75;;;9.81;100.00
6853;BME280;3465;42.144;24.722;2023-02-28T09:11:05;145446.16;;;10.12;100.00
6853;BME280;3465;42.144;24.722;2023-02-28T09:13:31;145463.66;;;10.19;100.00
6853;BME280;3465;42.144;24.722;2023-02-28T09:15:59;145464.91;;;10.19;100.00
6853;BME280;3465;42.144;24.722;2023-02-28T09:18:24;145512.47;;;10.38;100.00
6853;BME280;3465;42.144;24.722;2023-02-28T09:20:50;145483.66;;;10.27;100.00
6853;BME280;3465;42.144;24.722;2023-02-28T09:23:16;145496.19;;;10.32;100.00
6853;BME280;3465;42.144;24.722;2023-02-28T09:25:53;145466.19;;;10.20;100.00
6853;BME280;3465;42.144;24.722;2023-02-28T09:28:20;145452.38;;;10.14;100.00
6853;BME280;3465;42.144;24.722;2023-02-28T09:30:48;145447.38;;;10.12;100.00
6853;BME280;3465;42.144;24.722;2023-02-28T09:33:15;145466.19;;;10.20;100.00
6853;BME280;3465;42.144;24.722;2023-02-28T09:35:41;145496.19;;;10.32;100.00
6853;BME280;3465;42.144;24.722;2023-02-28T09:38:08;145484.94;;;10.27;100.00
6853;BME280;3465;42.144;24.722;2023-02-28T09:40:37;145499.94;;;10.33;100.00
6853;BME280;3465;42.144;24.722;2023-02-28T09:43:04;145501.22;;;10.34;100.00
6853;BME280;3465;42.144;24.722;2023-02-28T09:45:39;145438.59;;;10.08;100.00
6853;BME280;3465;42.144;24.722;2023-02-28T09:48:13;145437.38;;;10.08;100.00
6853;BME280;3465;42.144;24.722;2023-02-28T09:50:52;145447.38;;;10.12;100.00
6853;BME280;3465;42.144;24.722;2023-02-28T09:53:28;145367.22;;;9.80;100.00
6853;BME280;3465;42.144;24.722;2023-02-28T09:56:09;145350.94;;;9.73;100.00
6853;BME280;3465;42.144;24.722;2023-02-28T09:58:37;145345.97;;;9.71;100.00
6853;BME280;3465;42.144;24.722;2023-02-28T10:06:44;145414.75;;;9.99;100.00
6853;BME280;3465;42.144;24.722;2023-02-28T10:09:18;145463.66;;;10.19;100.00
6853;BME280;3465;42.144;24.722;2023-02-28T10:11:48;145428.56;;;10.04;100.00
6853;BME280;3465;42.144;24.722;2023-02-28T10:14:27;145448.63;;;10.13;100.00
6853;BME280;3465;42.144;24.722;2023-02-28T10:17:02;145458.63;;;10.17;100.00
6853;BME280;3465;42.144;24.722;2023-02-28T10:19:54;145469.94;;;10.21;100.00
6853;BME280;3465;42.144;24.722;2023-02-28T10:22:33;145466.19;;;10.20;100.00
6853;BME280;3465;42.144;24.722;2023-02-28T10:25:01;145543.78;;;10.51;100.00
6853;BME280;3465;42.144;24.722;2023-02-28T10:27:32;145546.31;;;10.52;100.00
6853;BME280;3465;42.144;24.722;2023-02-28T10:30:00;145521.25;;;10.42;100.00
6853;BME280;3465;42.144;24.722;2023-02-28T10:32:36;145492.44;;;10.30;100.00
6853;BME280;3465;42.144;24.722;2023-02-28T10:37:40;145474.91;;;10.23;100.00
6853;BME280;3465;42.144;24.722;2023-02-28T10:40:24;145453.66;;;10.15;100.00
6853;BME280;3465;42.144;24.722;2023-02-28T10:43:21;145417.31;;;10.00;100.00
6853;BME280;3465;42.144;24.722;2023-02-28T10:48:41;145384.75;;;9.87;100.00
6853;BME280;3465;42.144;24.722;2023-02-28T10:51:16;145411.00;;;9.97;100.00
6853;BME280;3465;42.144;24.722;2023-02-28T10:59:31;145484.94;;;10.27;100.00
6853;BME280;3465;42.144;24.722;2023-02-28T11:01:47;145429.81;;;10.05;100.00
6853;BME280;3465;42.144;24.722;2023-02-28T11:06:48;145342.16;;;9.70;100.00
6853;BME280;3465;42.144;24.722;2023-02-28T11:09:34;145333.47;;;9.66;100.00
6853;BME280;3465;42.144;24.722;2023-02-28T11:12:02;145309.69;;;9.57;100.00
6853;BME280;3465;42.144;24.722;2023-02-28T11:14:40;145344.72;;;9.71;100.00
6853;BME280;3465;42.144;24.722;2023-02-28T11:17:26;145330.91;;;9.65;100.00
6853;BME280;3465;42.144;24.722;2023-02-28T11:19:58;145322.16;;;9.62;100.00
6853;BME280;3465;42.144;24.722;2023-02-28T11:22:30;145313.44;;;9.58;100.00
6853;BME280;3465;42.144;24.722;2023-02-28T11:25:03;145280.91;;;9.45;100.00
6853;BME280;3465;42.144;24.722;2023-02-28T11:29:59;145295.91;;;9.51;100.00
6853;BME280;3465;42.144;24.722;2023-02-28T11:32:27;145305.94;;;9.55;100.00
6853;BME280;3465;42.144;24.722;2023-02-28T11:37:35;145245.88;;;9.31;100.00
6853;BME280;3465;42.144;24.722;2023-02-28T11:40:02;145214.56;;;9.19;100.00
6853;BME280;3465;42.144;24.722;2023-02-28T11:45:49;145219.59;;;9.21;100.00
6853;BME280;3465;42.144;24.722;2023-02-28T11:51:25;145175.81;;;9.03;100.00
6853;BME280;3465;42.144;24.722;2023-02-28T11:56:48;145120.81;;;8.81;100.00
6853;BME280;3465;42.144;24.722;2023-02-28T12:05:04;145173.34;;;9.02;100.00
6853;BME280;3465;42.144;24.722;2023-02-28T12:07:39;145154.53;;;8.95;100.00
6853;BME280;3465;42.144;24.722;2023-02-28T12:10:20;145127.03;;;8.84;100.00
6853;BME280;3465;42.144;24.722;2023-02-28T12:13:06;145142.03;;;8.90;100.00
6853;BME280;3465;42.144;24.722;2023-02-28T12:18:47;145163.31;;;8.98;100.00
6853;BME280;3465;42.144;24.722;2023-02-28T12:27:07;145128.31;;;8.84;100.00
6853;BME280;3465;42.144;24.722;2023-02-28T12:29:43;145142.03;;;8.90;100.00
6853;BME280;3465;42.144;24.722;2023-02-28T12:32:21;145188.34;;;9.08;100.00
6853;BME280;3465;42.144;24.722;2023-02-28T12:34:52;145203.31;;;9.14;100.00
6853;BME280;3465;42.144;24.722;2023-02-28T12:37:25;145214.56;;;9.19;100.00
6853;BME280;3465;42.144;24.722;2023-02-28T12:39:55;145203.31;;;9.14;100.00
6853;BME280;3465;42.144;24.722;2023-02-28T12:42:34;145070.78;;;8.61;100.00
6853;BME280;3465;42.144;24.722;2023-02-28T12:45:08;145187.06;;;9.08;100.00
6853;BME280;3465;42.144;24.722;2023-02-28T12:47:38;145182.06;;;9.06;100.00
6853;BME280;3465;42.144;24.722;2023-02-28T12:50:08;145173.34;;;9.02;100.00
6853;BME280;3465;42.144;24.722;2023-02-28T12:52:55;145162.03;;;8.98;100.00
6853;BME280;3465;42.144;24.722;2023-02-28T12:55:56;145148.31;;;8.92;100.00
6853;BME280;3465;42.144;24.722;2023-02-28T12:58:34;145165.84;;;8.99;100.00
6853;BME280;3465;42.144;24.722;2023-02-28T13:01:08;145179.56;;;9.05;100.00
6853;BME280;3465;42.144;24.722;2023-02-28T13:09:38;145130.78;;;8.85;100.00
6853;BME280;3465;42.144;24.722;2023-02-28T13:12:15;145145.84;;;8.91;100.00
6853;BME280;3465;42.144;24.722;2023-02-28T13:14:42;145124.56;;;8.83;100.00
6853;BME280;3465;42.144;24.722;2023-02-28T13:19:39;145125.81;;;8.83;100.00
6853;BME280;3465;42.144;24.722;2023-02-28T13:22:17;145109.56;;;8.77;100.00
6853;BME280;3465;42.144;24.722;2023-02-28T13:24:49;145088.31;;;8.68;100.00
6853;BME280;3465;42.144;24.722;2023-02-28T13:29:52;145095.78;;;8.71;100.00
6853;BME280;3465;42.144;24.722;2023-02-28T13:32:34;145097.06;;;8.72;100.00
6853;BME280;3465;42.144;24.722;2023-02-28T13:37:36;145085.81;;;8.67;100.00
6853;BME280;3465;42.144;24.722;2023-02-28T13:40:31;145098.28;;;8.72;100.00
6853;BME280;3465;42.144;24.722;2023-02-28T13:43:02;145102.03;;;8.73;100.00
6853;BME280;3465;42.144;24.722;2023-02-28T13:45:28;145085.81;;;8.67;100.00
6853;BME280;3465;42.144;24.722;2023-02-28T13:48:20;145058.28;;;8.56;100.00
6853;BME280;3465;42.144;24.722;2023-02-28T13:50:50;145063.28;;;8.58;100.00
6853;BME280;3465;42.144;24.722;2023-02-28T13:56:02;145080.81;;;8.65;100.00
6853;BME280;3465;42.144;24.722;2023-02-28T13:58:54;145099.53;;;8.73;100.00
6853;BME280;3465;42.144;24.722;2023-02-28T14:01:41;145118.28;;;8.80;100.00
6853;BME280;3465;42.144;24.722;2023-02-28T14:04:48;145140.81;;;8.89;100.00
6853;BME280;3465;42.144;24.722;2023-02-28T14:07:19;145117.06;;;8.80;100.00
6853;BME280;3465;42.144;24.722;2023-02-28T14:09:52;145152.06;;;8.94;100.00
6853;BME280;3465;42.144;24.722;2023-02-28T14:18:21;145113.31;;;8.78;100.00
6853;BME280;3465;42.144;24.722;2023-02-28T14:20:48;145084.56;;;8.66;100.00
6853;BME280;3465;42.144;24.722;2023-02-28T14:24:16;145123.28;;;8.82;100.00
6853;BME280;3465;42.144;24.722;2023-02-28T14:29:21;145098.28;;;8.72;100.00
6853;BME280;3465;42.144;24.722;2023-02-28T14:32:05;145002.03;;;8.33;100.00
6853;BME280;3465;42.144;24.722;2023-02-28T14:34:44;145094.53;;;8.70;100.00
6853;BME280;3465;42.144;24.722;2023-02-28T14:37:20;145125.81;;;8.83;100.00
6853;BME280;3465;42.144;24.722;2023-02-28T14:39:49;145119.53;;;8.81;100.00
6853;BME280;3465;42.144;24.722;2023-02-28T14:42:35;145134.53;;;8.87;100.00
6853;BME280;3465;42.144;24.722;2023-02-28T14:45:03;145135.81;;;8.87;100.00
6853;BME280;3465;42.144;24.722;2023-02-28T14:47:33;145145.84;;;8.91;100.00
6853;BME280;3465;42.144;24.722;2023-02-28T14:50:02;145125.81;;;8.83;100.00
6853;BME280;3465;42.144;24.722;2023-02-28T14:52:30;145128.31;;;8.84;100.00
6853;BME280;3465;42.144;24.722;2023-02-28T14:55:04;145067.03;;;8.59;100.00